sensor_id;sensor_type;location;lat;lon;timestamp;P1;durP1;ratioP1;P2;durP2;ratioP2
11763;SDS011;5939;56.522;14.950;2023-07-13T00:01:37;2.33;;;1.50;;
11763;SDS011;5939;56.522;14.950;2023-07-13T00:04:03;1.93;;;1.50;;
11763;SDS011;5939;56.522;14.950;2023-07-13T00:06:29;2.10;;;1.40;;
11763;SDS011;5939;56.522;14.950;2023-07-13T00:08:58;2.37;;;1.40;;
11763;SDS011;5939;56.522;14.950;2023-07-13T00:11:24;2.17;;;1.37;;
11763;SDS011;5939;56.522;14.950;2023-07-13T00:13:50;3.77;;;1.60;;
11763;SDS011;5939;56.522;14.950;2023-07-13T00:16:16;1.77;;;1.33;;
11763;SDS011;5939;56.522;14.950;2023-07-13T00:18:43;2.67;;;1.57;;
11763;SDS011;5939;56.522;14.950;2023-07-13T00:21:09;1.40;;;1.30;;
11763;SDS011;5939;56.522;14.950;2023-07-13T00:23:37;2.23;;;1.30;;
11763;SDS011;5939;56.522;14.950;2023-07-13T00:26:05;2.90;;;1.30;;
11763;SDS011;5939;56.522;14.950;2023-07-13T00:28:32;2.60;;;1.60;;
11763;SDS011;5939;56.522;14.950;2023-07-13T00:30:59;1.87;;;1.20;;
11763;SDS011;5939;56.522;14.950;2023-07-13T00:33:25;1.87;;;1.53;;
11763;SDS011;5939;56.522;14.950;2023-07-13T00:35:53;2.33;;;1.40;;
11763;SDS011;5939;56.522;14.950;2023-07-13T00:38:19;2.43;;;1.30;;
11763;SDS011;5939;56.522;14.950;2023-07-13T00:40:45;3.07;;;1.50;;
11763;SDS011;5939;56.522;14.950;2023-07-13T00:43:12;4.77;;;1.40;;
11763;SDS011;5939;56.522;14.950;2023-07-13T00:46:27;1.87;;;1.20;;
11763;SDS011;5939;56.522;14.950;2023-07-13T00:48:27;2.43;;;1.40;;
11763;SDS011;5939;56.522;14.950;2023-07-13T00:50:57;2.60;;;1.30;;
11763;SDS011;5939;56.522;14.950;2023-07-13T00:53:27;1.57;;;1.33;;
11763;SDS011;5939;56.522;14.950;2023-07-13T00:55:55;2.40;;;1.40;;
11763;SDS011;5939;56.522;14.950;2023-07-13T00:58:22;3.60;;;1.60;;
11763;SDS011;5939;56.522;14.950;2023-07-13T01:00:49;2.37;;;1.60;;
11763;SDS011;5939;56.522;14.950;2023-07-13T01:03:16;2.13;;;1.30;;
11763;SDS011;5939;56.522;14.950;2023-07-13T01:05:43;2.00;;;1.40;;
11763;SDS011;5939;56.522;14.950;2023-07-13T01:08:11;2.27;;;1.30;;
11763;SDS011;5939;56.522;14.950;2023-07-13T01:10:36;1.80;;;1.27;;
11763;SDS011;5939;56.522;14.950;2023-07-13T01:13:08;1.40;;;1.30;;
11763;SDS011;5939;56.522;14.950;2023-07-13T01:15:42;1.87;;;1.30;;
11763;SDS011;5939;56.522;14.950;2023-07-13T01:18:10;2.17;;;1.60;;
11763;SDS011;5939;56.522;14.950;2023-07-13T01:20:38;2.53;;;1.50;;
11763;SDS011;5939;56.522;14.950;2023-07-13T01:23:05;3.17;;;1.50;;
11763;SDS011;5939;56.522;14.950;2023-07-13T01:25:36;1.93;;;1.23;;
11763;SDS011;5939;56.522;14.950;2023-07-13T01:28:03;2.30;;;1.43;;
11763;SDS011;5939;56.522;14.950;2023-07-13T01:30:30;2.53;;;1.47;;
11763;SDS011;5939;56.522;14.950;2023-07-13T01:32:57;2.77;;;1.50;;
11763;SDS011;5939;56.522;14.950;2023-07-13T01:35:23;1.67;;;1.50;;
11763;SDS011;5939;56.522;14.950;2023-07-13T01:37:50;3.73;;;1.43;;
11763;SDS011;5939;56.522;14.950;2023-07-13T01:40:16;4.43;;;1.40;;
11763;SDS011;5939;56.522;14.950;2023-07-13T01:42:42;3.57;;;1.40;;
11763;SDS011;5939;56.522;14.950;2023-07-13T01:45:08;3.37;;;1.20;;
11763;SDS011;5939;56.522;14.950;2023-07-13T01:47:34;4.53;;;1.60;;
11763;SDS011;5939;56.522;14.950;2023-07-13T01:50:00;1.60;;;1.40;;
11763;SDS011;5939;56.522;14.950;2023-07-13T01:52:25;1.63;;;1.33;;
11763;SDS011;5939;56.522;14.950;2023-07-13T01:54:51;3.13;;;1.53;;
11763;SDS011;5939;56.522;14.950;2023-07-13T01:57:17;1.67;;;1.30;;
11763;SDS011;5939;56.522;14.950;2023-07-13T01:59:42;1.53;;;1.30;;
11763;SDS011;5939;56.522;14.950;2023-07-13T02:02:08;1.97;;;1.33;;
11763;SDS011;5939;56.522;14.950;2023-07-13T02:04:33;3.13;;;1.37;;
11763;SDS011;5939;56.522;14.950;2023-07-13T02:06:59;2.83;;;1.37;;
11763;SDS011;5939;56.522;14.950;2023-07-13T02:09:25;1.33;;;1.20;;
11763;SDS011;5939;56.522;14.950;2023-07-13T02:11:50;2.80;;;1.20;;
11763;SDS011;5939;56.522;14.950;2023-07-13T02:14:16;1.20;;;1.10;;
11763;SDS011;5939;56.522;14.950;2023-07-13T02:16:42;3.97;;;1.40;;
11763;SDS011;5939;56.522;14.950;2023-07-13T02:19:07;3.10;;;1.57;;
11763;SDS011;5939;56.522;14.950;2023-07-13T02:21:33;3.80;;;1.40;;
11763;SDS011;5939;56.522;14.950;2023-07-13T02:23:59;4.43;;;1.40;;
11763;SDS011;5939;56.522;14.950;2023-07-13T02:26:25;2.37;;;1.87;;
11763;SDS011;5939;56.522;14.950;2023-07-13T02:28:51;4.50;;;1.50;;
11763;SDS011;5939;56.522;14.950;2023-07-13T02:31:17;3.17;;;1.50;;
11763;SDS011;5939;56.522;14.950;2023-07-13T02:33:43;2.63;;;1.30;;
11763;SDS011;5939;56.522;14.950;2023-07-13T02:36:08;2.80;;;1.53;;
11763;SDS011;5939;56.522;14.950;2023-07-13T02:38:35;2.53;;;1.30;;
11763;SDS011;5939;56.522;14.950;2023-07-13T02:41:01;3.07;;;1.50;;
11763;SDS011;5939;56.522;14.950;2023-07-13T02:43:31;1.70;;;1.30;;
11763;SDS011;5939;56.522;14.950;2023-07-13T02:45:58;2.67;;;1.53;;
11763;SDS011;5939;56.522;14.950;2023-07-13T02:48:29;1.40;;;1.30;;
11763;SDS011;5939;56.522;14.950;2023-07-13T02:50:55;2.53;;;1.80;;
11763;SDS011;5939;56.522;14.950;2023-07-13T02:53:20;1.60;;;1.50;;
11763;SDS011;5939;56.522;14.950;2023-07-13T02:55:46;3.10;;;1.33;;
11763;SDS011;5939;56.522;14.950;2023-07-13T02:58:12;2.73;;;1.40;;
11763;SDS011;5939;56.522;14.950;2023-07-13T03:00:42;2.33;;;1.60;;
11763;SDS011;5939;56.522;14.950;2023-07-13T03:03:08;1.60;;;1.50;;
11763;SDS011;5939;56.522;14.950;2023-07-13T03:05:36;2.13;;;1.40;;
11763;SDS011;5939;56.522;14.950;2023-07-13T03:08:03;3.13;;;1.40;;
11763;SDS011;5939;56.522;14.950;2023-07-13T03:10:29;3.33;;;1.60;;
11763;SDS011;5939;56.522;14.950;2023-07-13T03:12:54;2.70;;;1.50;;
11763;SDS011;5939;56.522;14.950;2023-07-13T03:15:20;4.83;;;1.70;;
11763;SDS011;5939;56.522;14.950;2023-07-13T03:17:45;3.73;;;1.70;;
11763;SDS011;5939;56.522;14.950;2023-07-13T03:20:11;1.80;;;1.50;;
11763;SDS011;5939;56.522;14.950;2023-07-13T03:22:37;2.83;;;1.50;;
11763;SDS011;5939;56.522;14.950;2023-07-13T03:25:03;1.90;;;1.50;;
11763;SDS011;5939;56.522;14.950;2023-07-13T03:27:29;1.97;;;1.47;;
11763;SDS011;5939;56.522;14.950;2023-07-13T03:29:55;1.93;;;1.43;;
11763;SDS011;5939;56.522;14.950;2023-07-13T03:32:20;3.47;;;1.67;;
11763;SDS011;5939;56.522;14.950;2023-07-13T03:34:46;3.13;;;1.57;;
11763;SDS011;5939;56.522;14.950;2023-07-13T03:37:12;2.33;;;1.60;;
11763;SDS011;5939;56.522;14.950;2023-07-13T03:39:37;4.70;;;1.80;;
11763;SDS011;5939;56.522;14.950;2023-07-13T03:42:03;3.37;;;1.47;;
11763;SDS011;5939;56.522;14.950;2023-07-13T03:44:29;2.67;;;1.63;;
11763;SDS011;5939;56.522;14.950;2023-07-13T03:46:55;4.10;;;1.80;;
11763;SDS011;5939;56.522;14.950;2023-07-13T03:49:20;2.00;;;1.40;;
11763;SDS011;5939;56.522;14.950;2023-07-13T03:51:46;2.33;;;1.60;;
11763;SDS011;5939;56.522;14.950;2023-07-13T03:54:12;2.90;;;1.47;;
11763;SDS011;5939;56.522;14.950;2023-07-13T03:56:37;3.57;;;1.50;;
11763;SDS011;5939;56.522;14.950;2023-07-13T03:59:03;1.50;;;1.30;;
11763;SDS011;5939;56.522;14.950;2023-07-13T04:01:29;2.80;;;1.50;;
11763;SDS011;5939;56.522;14.950;2023-07-13T04:03:55;2.40;;;1.60;;
11763;SDS011;5939;56.522;14.950;2023-07-13T04:06:25;2.83;;;1.60;;
11763;SDS011;5939;56.522;14.950;2023-07-13T04:08:57;1.87;;;1.40;;
11763;SDS011;5939;56.522;14.950;2023-07-13T04:11:26;3.30;;;1.50;;
11763;SDS011;5939;56.522;14.950;2023-07-13T04:13:56;2.60;;;1.50;;
11763;SDS011;5939;56.522;14.950;2023-07-13T04:16:22;1.67;;;1.57;;
11763;SDS011;5939;56.522;14.950;2023-07-13T04:18:47;2.33;;;1.80;;
11763;SDS011;5939;56.522;14.950;2023-07-13T04:21:14;1.80;;;1.60;;
11763;SDS011;5939;56.522;14.950;2023-07-13T04:23:40;3.10;;;1.50;;
11763;SDS011;5939;56.522;14.950;2023-07-13T04:26:06;2.60;;;1.33;;
11763;SDS011;5939;56.522;14.950;2023-07-13T04:28:33;2.60;;;1.80;;
11763;SDS011;5939;56.522;14.950;2023-07-13T04:30:58;4.90;;;2.00;;
11763;SDS011;5939;56.522;14.950;2023-07-13T04:33:25;2.30;;;1.70;;
11763;SDS011;5939;56.522;14.950;2023-07-13T04:35:53;3.43;;;1.50;;
11763;SDS011;5939;56.522;14.950;2023-07-13T04:38:21;2.03;;;1.50;;
11763;SDS011;5939;56.522;14.950;2023-07-13T04:40:49;2.10;;;1.60;;
11763;SDS011;5939;56.522;14.950;2023-07-13T04:43:16;3.60;;;1.80;;
11763;SDS011;5939;56.522;14.950;2023-07-13T04:45:41;1.80;;;1.50;;
11763;SDS011;5939;56.522;14.950;2023-07-13T04:48:07;3.53;;;1.80;;
11763;SDS011;5939;56.522;14.950;2023-07-13T04:50:33;3.53;;;1.80;;
11763;SDS011;5939;56.522;14.950;2023-07-13T04:53:02;1.73;;;1.60;;
11763;SDS011;5939;56.522;14.950;2023-07-13T04:55:29;1.67;;;1.50;;
11763;SDS011;5939;56.522;14.950;2023-07-13T04:57:55;3.13;;;1.53;;
11763;SDS011;5939;56.522;14.950;2023-07-13T05:00:23;2.00;;;1.60;;
11763;SDS011;5939;56.522;14.950;2023-07-13T05:02:49;2.80;;;1.40;;
11763;SDS011;5939;56.522;14.950;2023-07-13T05:05:16;2.43;;;1.50;;
11763;SDS011;5939;56.522;14.950;2023-07-13T05:07:42;5.03;;;1.40;;
11763;SDS011;5939;56.522;14.950;2023-07-13T05:10:08;3.63;;;1.73;;
11763;SDS011;5939;56.522;14.950;2023-07-13T05:12:34;2.90;;;1.70;;
11763;SDS011;5939;56.522;14.950;2023-07-13T05:15:01;2.50;;;1.60;;
11763;SDS011;5939;56.522;14.950;2023-07-13T05:17:27;2.93;;;1.57;;
11763;SDS011;5939;56.522;14.950;2023-07-13T05:19:52;2.87;;;1.60;;
11763;SDS011;5939;56.522;14.950;2023-07-13T05:22:18;2.80;;;1.60;;
11763;SDS011;5939;56.522;14.950;2023-07-13T05:24:43;2.07;;;1.60;;
11763;SDS011;5939;56.522;14.950;2023-07-13T05:27:09;4.37;;;1.63;;
11763;SDS011;5939;56.522;14.950;2023-07-13T05:29:35;2.97;;;1.63;;
11763;SDS011;5939;56.522;14.950;2023-07-13T05:32:00;3.90;;;1.83;;
11763;SDS011;5939;56.522;14.950;2023-07-13T05:34:26;3.70;;;2.10;;
11763;SDS011;5939;56.522;14.950;2023-07-13T05:36:51;3.90;;;1.83;;
11763;SDS011;5939;56.522;14.950;2023-07-13T05:39:17;2.10;;;1.40;;
11763;SDS011;5939;56.522;14.950;2023-07-13T05:41:44;3.07;;;1.70;;
11763;SDS011;5939;56.522;14.950;2023-07-13T05:44:09;2.53;;;1.80;;
11763;SDS011;5939;56.522;14.950;2023-07-13T05:46:35;3.67;;;1.87;;
11763;SDS011;5939;56.522;14.950;2023-07-13T05:49:01;3.60;;;1.70;;
11763;SDS011;5939;56.522;14.950;2023-07-13T05:51:26;3.60;;;1.70;;
11763;SDS011;5939;56.522;14.950;2023-07-13T05:53:52;4.50;;;1.80;;
11763;SDS011;5939;56.522;14.950;2023-07-13T05:56:17;2.73;;;1.90;;
11763;SDS011;5939;56.522;14.950;2023-07-13T05:58:43;4.47;;;1.73;;
11763;SDS011;5939;56.522;14.950;2023-07-13T06:01:10;2.80;;;1.70;;
11763;SDS011;5939;56.522;14.950;2023-07-13T06:03:37;2.43;;;1.73;;
11763;SDS011;5939;56.522;14.950;2023-07-13T06:06:07;3.27;;;1.97;;
11763;SDS011;5939;56.522;14.950;2023-07-13T06:08:33;5.10;;;1.77;;
11763;SDS011;5939;56.522;14.950;2023-07-13T06:11:07;3.17;;;1.70;;
11763;SDS011;5939;56.522;14.950;2023-07-13T06:13:36;4.83;;;2.00;;
11763;SDS011;5939;56.522;14.950;2023-07-13T06:16:02;5.00;;;2.03;;
11763;SDS011;5939;56.522;14.950;2023-07-13T06:18:33;2.10;;;1.90;;
11763;SDS011;5939;56.522;14.950;2023-07-13T06:20:59;4.00;;;2.13;;
11763;SDS011;5939;56.522;14.950;2023-07-13T06:23:25;3.77;;;1.80;;
11763;SDS011;5939;56.522;14.950;2023-07-13T06:25:51;2.90;;;1.70;;
11763;SDS011;5939;56.522;14.950;2023-07-13T06:28:17;1.87;;;1.73;;
11763;SDS011;5939;56.522;14.950;2023-07-13T06:30:42;1.87;;;1.47;;
11763;SDS011;5939;56.522;14.950;2023-07-13T06:33:08;4.33;;;1.97;;
11763;SDS011;5939;56.522;14.950;2023-07-13T06:35:33;2.50;;;1.80;;
11763;SDS011;5939;56.522;14.950;2023-07-13T06:37:59;2.27;;;1.53;;
11763;SDS011;5939;56.522;14.950;2023-07-13T06:40:25;4.43;;;2.00;;
11763;SDS011;5939;56.522;14.950;2023-07-13T06:42:53;2.23;;;1.50;;
11763;SDS011;5939;56.522;14.950;2023-07-13T06:45:18;4.57;;;1.93;;
11763;SDS011;5939;56.522;14.950;2023-07-13T06:47:44;3.50;;;1.70;;
11763;SDS011;5939;56.522;14.950;2023-07-13T06:50:10;4.33;;;1.87;;
11763;SDS011;5939;56.522;14.950;2023-07-13T06:52:35;4.17;;;1.97;;
11763;SDS011;5939;56.522;14.950;2023-07-13T06:55:01;3.90;;;1.80;;
11763;SDS011;5939;56.522;14.950;2023-07-13T06:57:27;5.10;;;1.70;;
11763;SDS011;5939;56.522;14.950;2023-07-13T06:59:52;3.07;;;1.83;;
11763;SDS011;5939;56.522;14.950;2023-07-13T07:02:18;4.10;;;1.83;;
11763;SDS011;5939;56.522;14.950;2023-07-13T07:04:43;2.70;;;1.77;;
11763;SDS011;5939;56.522;14.950;2023-07-13T07:07:09;2.03;;;1.70;;
11763;SDS011;5939;56.522;14.950;2023-07-13T07:09:35;2.20;;;1.50;;
11763;SDS011;5939;56.522;14.950;2023-07-13T07:12:00;2.70;;;1.43;;
11763;SDS011;5939;56.522;14.950;2023-07-13T07:14:27;4.57;;;1.60;;
11763;SDS011;5939;56.522;14.950;2023-07-13T07:16:52;2.10;;;1.60;;
11763;SDS011;5939;56.522;14.950;2023-07-13T07:19:18;3.97;;;1.70;;
11763;SDS011;5939;56.522;14.950;2023-07-13T07:21:44;2.27;;;1.70;;
11763;SDS011;5939;56.522;14.950;2023-07-13T07:24:09;2.73;;;2.00;;
11763;SDS011;5939;56.522;14.950;2023-07-13T07:26:35;1.97;;;1.57;;
11763;SDS011;5939;56.522;14.950;2023-07-13T07:29:01;2.90;;;1.73;;
11763;SDS011;5939;56.522;14.950;2023-07-13T07:31:26;3.00;;;1.77;;
11763;SDS011;5939;56.522;14.950;2023-07-13T07:33:52;2.57;;;1.80;;
11763;SDS011;5939;56.522;14.950;2023-07-13T07:36:18;4.63;;;1.73;;
11763;SDS011;5939;56.522;14.950;2023-07-13T07:38:43;4.70;;;1.83;;
11763;SDS011;5939;56.522;14.950;2023-07-13T07:41:09;1.70;;;1.40;;
11763;SDS011;5939;56.522;14.950;2023-07-13T07:43:35;3.20;;;1.70;;
11763;SDS011;5939;56.522;14.950;2023-07-13T07:46:01;3.40;;;1.63;;
11763;SDS011;5939;56.522;14.950;2023-07-13T07:48:27;1.87;;;1.30;;
11763;SDS011;5939;56.522;14.950;2023-07-13T07:50:53;2.93;;;1.60;;
11763;SDS011;5939;56.522;14.950;2023-07-13T07:53:18;2.63;;;1.87;;
11763;SDS011;5939;56.522;14.950;2023-07-13T07:55:44;2.70;;;1.73;;
11763;SDS011;5939;56.522;14.950;2023-07-13T07:58:10;2.63;;;1.70;;
11763;SDS011;5939;56.522;14.950;2023-07-13T08:00:36;3.03;;;1.50;;
11763;SDS011;5939;56.522;14.950;2023-07-13T08:03:01;2.93;;;1.63;;
11763;SDS011;5939;56.522;14.950;2023-07-13T08:05:28;1.60;;;1.50;;
11763;SDS011;5939;56.522;14.950;2023-07-13T08:07:53;3.30;;;1.80;;
11763;SDS011;5939;56.522;14.950;2023-07-13T08:10:20;3.17;;;1.70;;
11763;SDS011;5939;56.522;14.950;2023-07-13T08:12:45;2.33;;;1.80;;
11763;SDS011;5939;56.522;14.950;2023-07-13T08:15:12;4.57;;;1.80;;
11763;SDS011;5939;56.522;14.950;2023-07-13T08:17:40;2.13;;;1.63;;
11763;SDS011;5939;56.522;14.950;2023-07-13T08:20:06;2.33;;;1.77;;
11763;SDS011;5939;56.522;14.950;2023-07-13T08:22:34;4.43;;;1.70;;
11763;SDS011;5939;56.522;14.950;2023-07-13T08:25:00;3.13;;;1.83;;
11763;SDS011;5939;56.522;14.950;2023-07-13T08:27:27;3.60;;;1.77;;
11763;SDS011;5939;56.522;14.950;2023-07-13T08:29:53;3.97;;;1.80;;
11763;SDS011;5939;56.522;14.950;2023-07-13T08:32:20;5.10;;;1.80;;
11763;SDS011;5939;56.522;14.950;2023-07-13T08:34:48;4.60;;;1.80;;
11763;SDS011;5939;56.522;14.950;2023-07-13T08:37:14;3.27;;;1.90;;
11763;SDS011;5939;56.522;14.950;2023-07-13T08:39:40;2.30;;;1.50;;
11763;SDS011;5939;56.522;14.950;2023-07-13T08:42:19;4.67;;;1.77;;
11763;SDS011;5939;56.522;14.950;2023-07-13T08:48:01;5.87;;;1.70;;
11763;SDS011;5939;56.522;14.950;2023-07-13T08:50:39;3.23;;;1.50;;
11763;SDS011;5939;56.522;14.950;2023-07-13T08:53:19;3.80;;;1.80;;
11763;SDS011;5939;56.522;14.950;2023-07-13T08:55:46;4.43;;;1.73;;
11763;SDS011;5939;56.522;14.950;2023-07-13T08:58:23;3.87;;;1.70;;
11763;SDS011;5939;56.522;14.950;2023-07-13T09:03:34;2.90;;;1.57;;
11763;SDS011;5939;56.522;14.950;2023-07-13T09:06:21;8.07;;;1.93;;
11763;SDS011;5939;56.522;14.950;2023-07-13T09:08:55;2.90;;;1.77;;
11763;SDS011;5939;56.522;14.950;2023-07-13T09:11:31;3.43;;;1.53;;
11763;SDS011;5939;56.522;14.950;2023-07-13T09:14:06;4.17;;;1.80;;
11763;SDS011;5939;56.522;14.950;2023-07-13T09:16:51;2.70;;;1.63;;
11763;SDS011;5939;56.522;14.950;2023-07-13T09:19:23;2.33;;;1.87;;
11763;SDS011;5939;56.522;14.950;2023-07-13T09:21:54;3.00;;;1.60;;
11763;SDS011;5939;56.522;14.950;2023-07-13T09:24:41;2.47;;;1.60;;
11763;SDS011;5939;56.522;14.950;2023-07-13T09:27:14;2.50;;;1.57;;
11763;SDS011;5939;56.522;14.950;2023-07-13T09:29:48;3.17;;;1.67;;
11763;SDS011;5939;56.522;14.950;2023-07-13T09:32:35;3.80;;;1.57;;
11763;SDS011;5939;56.522;14.950;2023-07-13T09:35:09;2.80;;;1.70;;
11763;SDS011;5939;56.522;14.950;2023-07-13T09:37:37;2.83;;;1.70;;
11763;SDS011;5939;56.522;14.950;2023-07-13T09:40:08;1.83;;;1.57;;
11763;SDS011;5939;56.522;14.950;2023-07-13T09:42:42;2.63;;;1.40;;
11763;SDS011;5939;56.522;14.950;2023-07-13T09:45:07;3.60;;;1.40;;
11763;SDS011;5939;56.522;14.950;2023-07-13T09:47:38;1.70;;;1.33;;
11763;SDS011;5939;56.522;14.950;2023-07-13T09:50:06;4.00;;;1.50;;
11763;SDS011;5939;56.522;14.950;2023-07-13T09:52:45;2.30;;;1.47;;
11763;SDS011;5939;56.522;14.950;2023-07-13T09:58:03;3.00;;;1.70;;
11763;SDS011;5939;56.522;14.950;2023-07-13T10:00:30;3.33;;;1.50;;
11763;SDS011;5939;56.522;14.950;2023-07-13T10:05:45;2.40;;;1.80;;
11763;SDS011;5939;56.522;14.950;2023-07-13T10:08:28;1.83;;;1.60;;
11763;SDS011;5939;56.522;14.950;2023-07-13T10:10:58;1.83;;;1.40;;
11763;SDS011;5939;56.522;14.950;2023-07-13T10:16:00;2.37;;;1.50;;
11763;SDS011;5939;56.522;14.950;2023-07-13T10:18:26;2.47;;;1.87;;
11763;SDS011;5939;56.522;14.950;2023-07-13T10:21:00;2.53;;;2.00;;
11763;SDS011;5939;56.522;14.950;2023-07-13T10:23:38;2.03;;;1.60;;
11763;SDS011;5939;56.522;14.950;2023-07-13T10:26:04;2.07;;;1.50;;
11763;SDS011;5939;56.522;14.950;2023-07-13T10:28:37;4.43;;;1.90;;
11763;SDS011;5939;56.522;14.950;2023-07-13T10:31:05;1.57;;;1.47;;
11763;SDS011;5939;56.522;14.950;2023-07-13T10:33:36;1.67;;;1.57;;
11763;SDS011;5939;56.522;14.950;2023-07-13T10:36:12;2.63;;;1.63;;
11763;SDS011;5939;56.522;14.950;2023-07-13T10:38:42;2.53;;;1.60;;
11763;SDS011;5939;56.522;14.950;2023-07-13T10:41:16;3.00;;;1.50;;
11763;SDS011;5939;56.522;14.950;2023-07-13T10:43:51;3.57;;;1.60;;
11763;SDS011;5939;56.522;14.950;2023-07-13T10:46:20;1.53;;;1.30;;
11763;SDS011;5939;56.522;14.950;2023-07-13T10:48:51;2.20;;;1.67;;
11763;SDS011;5939;56.522;14.950;2023-07-13T10:51:20;1.63;;;1.30;;
11763;SDS011;5939;56.522;14.950;2023-07-13T10:53:47;2.97;;;1.50;;
11763;SDS011;5939;56.522;14.950;2023-07-13T10:56:33;2.27;;;1.40;;
11763;SDS011;5939;56.522;14.950;2023-07-13T10:59:18;1.40;;;1.30;;
11763;SDS011;5939;56.522;14.950;2023-07-13T11:05:13;2.10;;;1.50;;
11763;SDS011;5939;56.522;14.950;2023-07-13T11:10:52;2.27;;;1.50;;
11763;SDS011;5939;56.522;14.950;2023-07-13T11:13:35;1.67;;;1.57;;
11763;SDS011;5939;56.522;14.950;2023-07-13T11:16:12;1.90;;;1.27;;
11763;SDS011;5939;56.522;14.950;2023-07-13T11:18:44;2.10;;;1.40;;
11763;SDS011;5939;56.522;14.950;2023-07-13T11:21:14;2.20;;;1.50;;
11763;SDS011;5939;56.522;14.950;2023-07-13T11:23:42;3.27;;;1.70;;
11763;SDS011;5939;56.522;14.950;2023-07-13T11:29:07;3.20;;;1.83;;
11763;SDS011;5939;56.522;14.950;2023-07-13T11:31:39;3.23;;;1.37;;
11763;SDS011;5939;56.522;14.950;2023-07-13T11:34:06;3.47;;;1.50;;
11763;SDS011;5939;56.522;14.950;2023-07-13T11:36:39;3.50;;;1.50;;
11763;SDS011;5939;56.522;14.950;2023-07-13T11:39:18;2.27;;;1.43;;
11763;SDS011;5939;56.522;14.950;2023-07-13T11:41:53;3.07;;;1.40;;
11763;SDS011;5939;56.522;14.950;2023-07-13T11:44:23;3.10;;;1.60;;
11763;SDS011;5939;56.522;14.950;2023-07-13T11:46:51;6.13;;;1.57;;
11763;SDS011;5939;56.522;14.950;2023-07-13T11:49:20;2.33;;;1.33;;
11763;SDS011;5939;56.522;14.950;2023-07-13T11:51:47;4.30;;;1.27;;
11763;SDS011;5939;56.522;14.950;2023-07-13T11:56:51;4.03;;;1.20;;
11763;SDS011;5939;56.522;14.950;2023-07-13T11:59:19;2.67;;;1.30;;
11763;SDS011;5939;56.522;14.950;2023-07-13T12:01:47;2.67;;;1.60;;
11763;SDS011;5939;56.522;14.950;2023-07-13T12:04:22;4.97;;;1.40;;
11763;SDS011;5939;56.522;14.950;2023-07-13T12:06:52;1.87;;;1.20;;
11763;SDS011;5939;56.522;14.950;2023-07-13T12:09:28;2.27;;;1.13;;
11763;SDS011;5939;56.522;14.950;2023-07-13T12:11:56;2.73;;;1.30;;
11763;SDS011;5939;56.522;14.950;2023-07-13T12:14:24;1.43;;;1.00;;
11763;SDS011;5939;56.522;14.950;2023-07-13T12:16:51;3.63;;;1.30;;
11763;SDS011;5939;56.522;14.950;2023-07-13T12:19:19;2.00;;;1.40;;
11763;SDS011;5939;56.522;14.950;2023-07-13T12:21:46;1.97;;;1.30;;
11763;SDS011;5939;56.522;14.950;2023-07-13T12:24:17;2.30;;;1.30;;
11763;SDS011;5939;56.522;14.950;2023-07-13T12:26:44;2.20;;;1.17;;
11763;SDS011;5939;56.522;14.950;2023-07-13T12:29:16;2.30;;;1.20;;
11763;SDS011;5939;56.522;14.950;2023-07-13T12:31:46;1.87;;;1.20;;
11763;SDS011;5939;56.522;14.950;2023-07-13T12:34:17;3.07;;;1.30;;
11763;SDS011;5939;56.522;14.950;2023-07-13T12:39:22;1.77;;;1.30;;
11763;SDS011;5939;56.522;14.950;2023-07-13T12:44:53;2.07;;;1.20;;
11763;SDS011;5939;56.522;14.950;2023-07-13T12:47:41;5.37;;;1.17;;
11763;SDS011;5939;56.522;14.950;2023-07-13T12:50:42;2.50;;;1.60;;
11763;SDS011;5939;56.522;14.950;2023-07-13T12:53:06;1.90;;;1.23;;
11763;SDS011;5939;56.522;14.950;2023-07-13T12:55:57;3.63;;;1.30;;
11763;SDS011;5939;56.522;14.950;2023-07-13T12:58:36;2.13;;;1.30;;
11763;SDS011;5939;56.522;14.950;2023-07-13T13:01:04;3.20;;;1.40;;
11763;SDS011;5939;56.522;14.950;2023-07-13T13:06:02;1.57;;;1.20;;
11763;SDS011;5939;56.522;14.950;2023-07-13T13:08:33;2.30;;;1.30;;
11763;SDS011;5939;56.522;14.950;2023-07-13T13:11:03;1.57;;;1.20;;
11763;SDS011;5939;56.522;14.950;2023-07-13T13:13:29;2.03;;;1.30;;
11763;SDS011;5939;56.522;14.950;2023-07-13T13:15:55;1.90;;;1.30;;
11763;SDS011;5939;56.522;14.950;2023-07-13T13:18:23;2.40;;;1.27;;
11763;SDS011;5939;56.522;14.950;2023-07-13T13:20:51;2.40;;;1.60;;
11763;SDS011;5939;56.522;14.950;2023-07-13T13:23:19;1.73;;;1.30;;
11763;SDS011;5939;56.522;14.950;2023-07-13T13:25:46;1.43;;;1.17;;
11763;SDS011;5939;56.522;14.950;2023-07-13T13:28:21;2.37;;;1.23;;
11763;SDS011;5939;56.522;14.950;2023-07-13T13:30:48;1.93;;;1.50;;
11763;SDS011;5939;56.522;14.950;2023-07-13T13:33:16;2.77;;;1.47;;
11763;SDS011;5939;56.522;14.950;2023-07-13T13:35:44;3.50;;;1.27;;
11763;SDS011;5939;56.522;14.950;2023-07-13T13:38:11;2.13;;;1.27;;
11763;SDS011;5939;56.522;14.950;2023-07-13T13:40:41;1.73;;;1.20;;
11763;SDS011;5939;56.522;14.950;2023-07-13T13:43:13;2.43;;;1.40;;
11763;SDS011;5939;56.522;14.950;2023-07-13T13:45:41;2.00;;;1.23;;
11763;SDS011;5939;56.522;14.950;2023-07-13T13:48:07;1.63;;;1.20;;
11763;SDS011;5939;56.522;14.950;2023-07-13T13:50:45;1.67;;;1.40;;
11763;SDS011;5939;56.522;14.950;2023-07-13T13:53:12;2.03;;;1.37;;
11763;SDS011;5939;56.522;14.950;2023-07-13T13:55:38;2.20;;;1.17;;
11763;SDS011;5939;56.522;14.950;2023-07-13T13:58:06;1.47;;;1.00;;
11763;SDS011;5939;56.522;14.950;2023-07-13T14:00:38;1.43;;;1.17;;
11763;SDS011;5939;56.522;14.950;2023-07-13T14:03:04;1.93;;;0.93;;
11763;SDS011;5939;56.522;14.950;2023-07-13T14:05:32;1.20;;;0.90;;
11763;SDS011;5939;56.522;14.950;2023-07-13T14:07:58;1.90;;;1.20;;
11763;SDS011;5939;56.522;14.950;2023-07-13T14:10:24;1.37;;;1.00;;
11763;SDS011;5939;56.522;14.950;2023-07-13T14:12:52;3.40;;;1.00;;
11763;SDS011;5939;56.522;14.950;2023-07-13T14:15:26;1.50;;;0.97;;
11763;SDS011;5939;56.522;14.950;2023-07-13T14:17:53;2.07;;;0.90;;
11763;SDS011;5939;56.522;14.950;2023-07-13T14:20:21;1.43;;;0.90;;
11763;SDS011;5939;56.522;14.950;2023-07-13T14:22:48;1.77;;;1.20;;
11763;SDS011;5939;56.522;14.950;2023-07-13T14:25:15;3.93;;;1.00;;
11763;SDS011;5939;56.522;14.950;2023-07-13T14:27:42;2.83;;;1.03;;
11763;SDS011;5939;56.522;14.950;2023-07-13T14:30:17;1.33;;;1.00;;
11763;SDS011;5939;56.522;14.950;2023-07-13T14:32:45;1.57;;;1.10;;
11763;SDS011;5939;56.522;14.950;2023-07-13T14:35:13;2.10;;;1.03;;
11763;SDS011;5939;56.522;14.950;2023-07-13T14:37:40;0.97;;;0.90;;
11763;SDS011;5939;56.522;14.950;2023-07-13T14:42:38;2.33;;;1.10;;
11763;SDS011;5939;56.522;14.950;2023-07-13T14:45:04;1.70;;;1.17;;
11763;SDS011;5939;56.522;14.950;2023-07-13T14:47:30;2.70;;;1.20;;
11763;SDS011;5939;56.522;14.950;2023-07-13T14:49:56;2.23;;;1.30;;
11763;SDS011;5939;56.522;14.950;2023-07-13T14:52:22;2.77;;;1.20;;
11763;SDS011;5939;56.522;14.950;2023-07-13T14:54:50;1.97;;;1.03;;
11763;SDS011;5939;56.522;14.950;2023-07-13T14:57:17;1.63;;;1.10;;
11763;SDS011;5939;56.522;14.950;2023-07-13T14:59:44;2.90;;;1.07;;
11763;SDS011;5939;56.522;14.950;2023-07-13T15:04:41;2.00;;;1.27;;
11763;SDS011;5939;56.522;14.950;2023-07-13T15:07:12;1.87;;;1.17;;
11763;SDS011;5939;56.522;14.950;2023-07-13T15:09:40;2.90;;;1.50;;
11763;SDS011;5939;56.522;14.950;2023-07-13T15:12:06;1.40;;;1.20;;
11763;SDS011;5939;56.522;14.950;2023-07-13T15:14:32;3.97;;;1.30;;
11763;SDS011;5939;56.522;14.950;2023-07-13T15:16:58;1.57;;;1.40;;
11763;SDS011;5939;56.522;14.950;2023-07-13T15:19:24;1.30;;;1.20;;
11763;SDS011;5939;56.522;14.950;2023-07-13T15:21:51;1.50;;;1.20;;
11763;SDS011;5939;56.522;14.950;2023-07-13T15:24:22;1.53;;;1.20;;
11763;SDS011;5939;56.522;14.950;2023-07-13T15:26:48;1.97;;;1.37;;
11763;SDS011;5939;56.522;14.950;2023-07-13T15:29:17;1.40;;;1.20;;
11763;SDS011;5939;56.522;14.950;2023-07-13T15:31:43;1.77;;;1.30;;
11763;SDS011;5939;56.522;14.950;2023-07-13T15:34:14;2.97;;;1.30;;